createdAt,value
2022-11-05T00:00:38.303Z,34.93
2022-11-05T00:03:24.425Z,34.27
2022-11-05T00:06:23.852Z,34.10
2022-11-05T00:09:09.984Z,33.97
2022-11-05T00:11:57.157Z,32.60
2022-11-05T00:14:43.048Z,34.03
2022-11-05T00:17:11.682Z,32.77
2022-11-05T00:19:40.190Z,32.97
2022-11-05T00:22:26.082Z,32.30
2022-11-05T00:25:11.873Z,33.67
2022-11-05T00:27:41.942Z,32.30
2022-11-05T00:30:12.053Z,32.67
2022-11-05T00:32:40.694Z,33.03
2022-11-05T00:35:09.797Z,32.40
2022-11-05T00:37:38.356Z,32.00
2022-11-05T00:40:08.215Z,31.53
2022-11-05T00:42:54.101Z,32.17
2022-11-05T00:45:24.100Z,30.10
2022-11-05T00:48:12.393Z,30.63
2022-11-05T00:50:41.327Z,31.37
2022-11-05T00:53:10.270Z,30.57
2022-11-05T00:55:41.064Z,28.83
2022-11-05T00:58:11.676Z,29.63
2022-11-05T01:00:43.611Z,29.13
2022-11-05T01:03:14.940Z,28.30
2022-11-05T01:05:45.496Z,29.83
2022-11-05T01:08:15.506Z,27.47
2022-11-05T01:10:45.104Z,27.40
2022-11-05T01:13:15.012Z,30.47
2022-11-05T01:15:45.710Z,31.00
2022-11-05T01:18:14.728Z,30.70
2022-11-05T01:20:43.326Z,31.97
2022-11-05T01:23:13.718Z,30.43
2022-11-05T01:25:43.005Z,29.90
2022-11-05T01:28:11.672Z,30.63
2022-11-05T01:30:40.375Z,30.73
2022-11-05T01:33:10.510Z,30.60
2022-11-05T01:35:40.352Z,31.00
2022-11-05T01:38:08.888Z,30.17
2022-11-05T01:40:37.438Z,30.87
2022-11-05T01:43:10.796Z,30.53
2022-11-05T01:45:39.610Z,30.00
2022-11-05T01:48:15.329Z,30.07
2022-11-05T01:50:48.839Z,28.27
2022-11-05T01:53:24.570Z,29.90
2022-11-05T01:55:59.408Z,31.10
2022-11-05T01:58:33.959Z,30.50
2022-11-05T02:01:02.963Z,29.43
2022-11-05T02:03:33.568Z,29.00
2022-11-05T02:06:03.427Z,30.77
2022-11-05T02:08:43.590Z,29.83
2022-11-05T02:11:14.097Z,29.47
2022-11-05T02:13:42.611Z,28.47
2022-11-05T02:16:16.844Z,28.53
2022-11-05T02:18:56.647Z,26.27
2022-11-05T02:22:03.703Z,25.57
2022-11-05T02:25:03.075Z,26.97
2022-11-05T02:27:58.639Z,26.97
2022-11-05T02:30:40.989Z,26.07
2022-11-05T02:33:33.704Z,28.10
2022-11-05T02:36:27.051Z,29.17
2022-11-05T02:39:09.535Z,25.10
2022-11-05T02:41:47.865Z,25.53
2022-11-05T02:44:25.001Z,26.40
2022-11-05T02:47:04.362Z,26.33
2022-11-05T02:49:44.146Z,26.90
2022-11-05T02:52:17.835Z,27.67
2022-11-05T02:54:54.011Z,25.93
2022-11-05T02:57:23.614Z,24.90
2022-11-05T03:00:01.819Z,25.87
2022-11-05T03:02:32.199Z,24.67
2022-11-05T03:05:02.055Z,24.70
2022-11-05T03:07:39.133Z,24.23
2022-11-05T03:10:34.701Z,24.77
2022-11-05T03:13:12.164Z,22.20
2022-11-05T03:15:51.828Z,22.80
2022-11-05T03:18:28.181Z,22.30
2022-11-05T03:21:03.904Z,21.77
2022-11-05T03:23:36.730Z,20.37
2022-11-05T03:26:11.655Z,20.60
2022-11-05T03:28:44.205Z,20.40
2022-11-05T03:31:15.316Z,19.27
2022-11-05T03:33:47.569Z,20.17
2022-11-05T03:36:21.404Z,19.77
2022-11-05T03:38:54.473Z,17.50
2022-11-05T03:41:24.283Z,18.27
2022-11-05T03:43:57.553Z,17.83
2022-11-05T03:46:31.391Z,17.67
2022-11-05T03:49:05.268Z,17.70
2022-11-05T03:51:43.201Z,16.30
2022-11-05T03:54:12.120Z,17.13
2022-11-05T03:56:45.648Z,17.97
2022-11-05T03:59:14.981Z,16.13
2022-11-05T04:01:43.789Z,16.57
2022-11-05T04:04:13.749Z,17.07
2022-11-05T04:07:00.046Z,16.43
2022-11-05T04:09:46.538Z,17.57
2022-11-05T04:12:32.476Z,16.90
2022-11-05T04:15:01.059Z,15.50
2022-11-05T04:17:28.594Z,15.87
2022-11-05T04:20:15.934Z,15.17
2022-11-05T04:23:01.931Z,16.10
2022-11-05T04:25:30.546Z,15.83
2022-11-05T04:28:01.994Z,15.63
2022-11-05T04:30:29.594Z,15.80
2022-11-05T04:33:06.572Z,15.97
2022-11-05T04:35:38.765Z,16.00
2022-11-05T04:38:09.130Z,16.13
2022-11-05T04:40:38.198Z,16.03
2022-11-05T04:43:13.586Z,15.63
2022-11-05T04:45:44.277Z,15.23
2022-11-05T04:48:13.020Z,15.50
2022-11-05T04:50:43.043Z,15.30
2022-11-05T04:53:11.670Z,15.87
2022-11-05T04:55:40.386Z,14.33
2022-11-05T04:58:10.158Z,13.73
2022-11-05T05:00:38.752Z,13.63
2022-11-05T05:03:07.622Z,12.27
2022-11-05T05:05:36.708Z,12.23
2022-11-05T05:08:07.153Z,11.00
2022-11-05T05:10:35.670Z,9.60
2022-11-05T05:13:04.370Z,8.73
2022-11-05T05:15:32.964Z,7.80
2022-11-05T05:18:01.485Z,7.43
2022-11-05T05:20:47.463Z,6.53
2022-11-05T05:23:17.384Z,6.00
2022-11-05T05:25:46.018Z,5.90
2022-11-05T05:28:14.543Z,5.17
2022-11-05T05:30:43.110Z,4.70
2022-11-05T05:33:11.874Z,4.53
2022-11-05T05:35:40.651Z,4.10
2022-11-05T05:38:09.157Z,4.93
2022-11-05T05:40:39.071Z,3.90
2022-11-05T05:43:07.697Z,4.80
2022-11-05T05:45:36.507Z,4.63
2022-11-05T05:48:05.448Z,4.63
2022-11-05T05:50:34.012Z,3.37
2022-11-05T05:53:09.237Z,3.80
2022-11-05T05:55:39.283Z,4.37
2022-11-05T05:58:07.794Z,4.10
2022-11-05T06:00:36.758Z,4.63
2022-11-05T06:03:06.429Z,4.50
2022-11-05T06:05:35.067Z,4.53
2022-11-05T06:08:03.668Z,4.63
2022-11-05T06:10:32.468Z,4.70
2022-11-05T06:13:02.791Z,4.00
2022-11-05T06:15:35.626Z,4.57
2022-11-05T06:18:04.895Z,4.03
2022-11-05T06:20:33.480Z,4.27
2022-11-05T06:23:02.112Z,3.30
2022-11-05T06:25:30.723Z,3.30
2022-11-05T06:27:59.491Z,2.40
2022-11-05T06:30:29.429Z,2.67
2022-11-05T06:32:58.011Z,2.17
2022-11-05T06:35:26.586Z,2.40
2022-11-05T06:37:59.556Z,2.00
2022-11-05T06:40:28.344Z,1.90
2022-11-05T06:42:56.961Z,2.63
2022-11-05T06:45:25.622Z,2.23
2022-11-05T06:47:59.498Z,2.20
2022-11-05T06:50:29.040Z,2.00
2022-11-05T06:52:58.355Z,1.80
2022-11-05T06:55:28.824Z,2.30
2022-11-05T06:57:57.735Z,2.00
2022-11-05T07:00:26.343Z,1.80
2022-11-05T07:02:56.894Z,1.87
2022-11-05T07:05:27.356Z,1.77
2022-11-05T07:07:56.057Z,1.83
2022-11-05T07:10:24.811Z,1.70
2022-11-05T07:12:53.434Z,2.30
2022-11-05T07:15:22.093Z,2.10
2022-11-05T07:17:50.811Z,1.90
2022-11-05T07:20:19.577Z,1.90
2022-11-05T07:22:49.548Z,1.73
2022-11-05T07:25:18.234Z,1.90
2022-11-05T07:27:46.790Z,1.73
2022-11-05T07:30:15.468Z,1.50
2022-11-05T07:32:44.041Z,2.60
2022-11-05T07:35:13.442Z,1.57
2022-11-05T07:37:45.672Z,1.97
2022-11-05T07:40:18.246Z,1.93
2022-11-05T07:42:48.285Z,2.20
2022-11-05T07:45:17.827Z,2.30
2022-11-05T07:47:51.062Z,2.10
2022-11-05T07:50:22.314Z,2.13
2022-11-05T07:52:51.372Z,2.37
2022-11-05T07:55:21.865Z,2.20
2022-11-05T07:57:52.042Z,1.97
2022-11-05T08:00:22.334Z,1.83
2022-11-05T08:03:07.239Z,1.80
2022-11-05T08:05:37.735Z,2.00
2022-11-05T08:08:07.748Z,2.30
2022-11-05T08:10:39.017Z,1.97
2022-11-05T08:13:08.575Z,2.30
2022-11-05T08:15:37.637Z,2.27
2022-11-05T08:18:08.522Z,2.33
2022-11-05T08:20:38.633Z,2.40
2022-11-05T08:23:07.214Z,1.97
2022-11-05T08:25:37.260Z,1.53
2022-11-05T08:28:07.855Z,1.83
2022-11-05T08:30:36.981Z,1.60
2022-11-05T08:33:07.818Z,1.50
2022-11-05T08:35:38.574Z,2.00
2022-11-05T08:38:09.214Z,2.00
2022-11-05T08:40:39.379Z,2.70
2022-11-05T08:43:09.967Z,3.57
2022-11-05T08:45:39.488Z,3.17
2022-11-05T08:48:10.515Z,3.70
2022-11-05T08:50:40.364Z,3.90
2022-11-05T08:53:10.507Z,3.50
2022-11-05T08:55:41.892Z,3.80
2022-11-05T08:58:15.200Z,6.77
2022-11-05T09:00:45.703Z,4.27
2022-11-05T09:03:15.224Z,4.80
2022-11-05T09:05:44.779Z,4.30
2022-11-05T09:08:14.793Z,5.00
2022-11-05T09:10:45.781Z,6.47
2022-11-05T09:13:18.679Z,5.43
2022-11-05T09:15:49.037Z,4.90
2022-11-05T09:18:19.412Z,4.57
2022-11-05T09:20:48.509Z,4.93
2022-11-05T09:23:17.348Z,5.67
2022-11-05T09:25:47.625Z,5.53
2022-11-05T09:28:18.678Z,5.97
2022-11-05T09:30:49.288Z,6.90
2022-11-05T09:33:19.334Z,6.40
2022-11-05T09:35:48.385Z,6.47
2022-11-05T09:38:17.209Z,5.80
2022-11-05T09:40:55.517Z,5.20
2022-11-05T09:43:31.464Z,5.73
2022-11-05T09:46:08.490Z,5.20
2022-11-05T09:48:39.903Z,6.07
2022-11-05T09:51:09.460Z,5.30
2022-11-05T09:53:42.024Z,5.50
2022-11-05T09:56:32.223Z,5.70
2022-11-05T09:59:04.169Z,5.37
2022-11-05T10:01:36.488Z,6.37
2022-11-05T10:04:09.537Z,5.27
2022-11-05T10:06:45.811Z,5.90
2022-11-05T10:09:21.893Z,5.63
2022-11-05T10:11:57.692Z,5.37
2022-11-05T10:14:29.727Z,5.40
2022-11-05T10:17:05.060Z,5.80
2022-11-05T10:19:42.684Z,6.37
2022-11-05T10:22:13.358Z,6.00
2022-11-05T10:24:44.618Z,5.90
2022-11-05T10:27:19.309Z,6.17
2022-11-05T10:29:49.363Z,6.30
2022-11-05T10:32:26.670Z,5.77
2022-11-05T10:34:59.517Z,6.40
2022-11-05T10:37:29.261Z,7.20
2022-11-05T10:39:58.123Z,6.27
2022-11-05T10:42:42.554Z,7.23
2022-11-05T10:45:22.941Z,5.87
2022-11-05T10:48:01.604Z,6.57
2022-11-05T10:50:31.455Z,6.87
2022-11-05T10:53:02.608Z,7.27
2022-11-05T10:55:35.716Z,6.23
2022-11-05T10:58:23.292Z,6.53
2022-11-05T11:01:08.996Z,7.63
2022-11-05T11:03:44.520Z,6.30
2022-11-05T11:06:22.668Z,6.60
2022-11-05T11:08:52.870Z,6.80
2022-11-05T11:11:30.485Z,6.73
2022-11-05T11:14:07.301Z,6.97
2022-11-05T11:16:38.903Z,7.57
2022-11-05T11:19:26.533Z,6.77
2022-11-05T11:22:20.889Z,7.30
2022-11-05T11:24:51.904Z,6.87
2022-11-05T11:27:24.307Z,7.00
2022-11-05T11:29:58.212Z,7.73
2022-11-05T11:32:33.009Z,6.97
2022-11-05T11:35:01.910Z,7.43
2022-11-05T11:37:34.104Z,7.30
2022-11-05T11:40:06.739Z,8.07
2022-11-05T11:42:37.792Z,7.53
2022-11-05T11:45:20.434Z,6.80
2022-11-05T11:47:50.842Z,7.00
2022-11-05T11:50:38.719Z,6.13
2022-11-05T11:53:28.838Z,6.47
2022-11-05T11:56:00.555Z,6.20
2022-11-05T11:58:43.558Z,6.57
2022-11-05T12:01:47.382Z,5.90
2022-11-05T12:04:31.680Z,6.47
2022-11-05T12:07:13.994Z,6.93
2022-11-05T12:09:56.176Z,5.90
2022-11-05T12:12:34.441Z,5.90
2022-11-05T12:15:16.403Z,5.70
2022-11-05T12:17:50.973Z,5.40
2022-11-05T12:20:34.114Z,5.37
2022-11-05T12:23:24.717Z,5.63
2022-11-05T12:25:58.750Z,5.10
2022-11-05T12:29:16.810Z,4.80
2022-11-05T12:31:42.552Z,4.73
2022-11-05T12:34:27.124Z,3.83
2022-11-05T12:37:17.753Z,4.40
2022-11-05T12:40:02.703Z,4.30
2022-11-05T12:42:45.754Z,4.70
2022-11-05T12:45:28.343Z,4.07
2022-11-05T12:48:11.714Z,4.47
2022-11-05T12:50:45.693Z,4.03
2022-11-05T12:53:34.401Z,3.53
2022-11-05T12:56:10.991Z,3.40
2022-11-05T12:58:44.024Z,3.10
2022-11-05T13:01:18.943Z,2.77
2022-11-05T13:03:53.408Z,3.13
2022-11-05T13:06:26.635Z,3.20
2022-11-05T13:09:02.089Z,3.07
2022-11-05T13:11:37.189Z,2.80
2022-11-05T13:14:12.628Z,3.33
2022-11-05T13:16:44.860Z,2.67
2022-11-05T13:19:20.081Z,3.00
2022-11-05T13:21:54.466Z,4.40
2022-11-05T13:24:28.209Z,12.13
2022-11-05T13:27:02.399Z,7.20
2022-11-05T13:29:36.163Z,4.40
2022-11-05T13:32:15.604Z,4.00
2022-11-05T13:34:44.899Z,3.60
2022-11-05T13:37:42.583Z,2.73
2022-11-05T13:40:15.543Z,3.47
2022-11-05T13:43:03.361Z,3.07
2022-11-05T13:46:05.364Z,3.30
2022-11-05T13:49:08.230Z,4.33
2022-11-05T13:51:52.026Z,2.90
2022-11-05T13:54:53.027Z,2.80
2022-11-05T13:57:56.304Z,3.00
2022-11-05T14:00:27.103Z,2.57
2022-11-05T14:02:58.981Z,2.83
2022-11-05T14:05:34.158Z,2.60
2022-11-05T14:08:10.279Z,2.53
2022-11-05T14:10:41.236Z,3.60
2022-11-05T14:13:36.340Z,6.33
2022-11-05T14:16:08.200Z,6.87
2022-11-05T14:18:40.325Z,4.97
2022-11-05T14:21:33.022Z,6.33
2022-11-05T14:24:20.791Z,7.17
2022-11-05T14:27:34.284Z,4.43
2022-11-05T14:30:41.315Z,12.80
2022-11-05T14:33:32.903Z,3.57
2022-11-05T14:36:33.936Z,3.40
2022-11-05T14:39:21.572Z,2.77
2022-11-05T14:42:04.797Z,3.43
2022-11-05T14:44:36.464Z,2.20
2022-11-05T14:47:09.038Z,3.03
2022-11-05T14:49:49.330Z,3.00
2022-11-05T14:52:20.935Z,2.50
2022-11-05T14:54:52.261Z,2.77
2022-11-05T14:57:56.738Z,3.67
2022-11-05T15:00:44.333Z,4.03
2022-11-05T15:04:02.309Z,3.33
2022-11-05T15:06:34.993Z,4.30
2022-11-05T15:09:29.797Z,3.70
2022-11-05T15:12:15.423Z,4.27
2022-11-05T15:14:55.529Z,4.23
2022-11-05T15:17:29.976Z,3.67
2022-11-05T15:20:14.966Z,4.40
2022-11-05T15:22:48.416Z,5.03
2022-11-05T15:25:20.071Z,5.10
2022-11-05T15:28:00.049Z,4.23
2022-11-05T15:30:28.835Z,5.20
2022-11-05T15:33:10.588Z,5.33
2022-11-05T15:35:41.684Z,4.73
2022-11-05T15:38:30.547Z,5.70
2022-11-05T15:41:01.477Z,5.30
2022-11-05T15:43:30.133Z,4.97
2022-11-05T15:46:03.712Z,5.27
2022-11-05T15:48:33.374Z,3.70
2022-11-05T15:51:02.459Z,3.80
2022-11-05T15:56:51.157Z,4.43
2022-11-05T15:59:21.656Z,4.10
2022-11-05T16:01:52.307Z,4.97
2022-11-05T16:04:23.879Z,4.50
2022-11-05T16:06:55.094Z,5.43
2022-11-05T16:09:27.647Z,5.30
2022-11-05T16:12:25.143Z,5.23
2022-11-05T16:15:04.397Z,6.17
2022-11-05T16:17:45.595Z,5.90
2022-11-05T16:20:23.860Z,6.17
2022-11-05T16:22:54.353Z,7.17
2022-11-05T16:25:35.923Z,4.87
2022-11-05T16:28:06.127Z,6.20
2022-11-05T16:30:35.184Z,5.80
2022-11-05T16:33:06.084Z,5.77
2022-11-05T16:35:34.889Z,5.93
2022-11-05T16:38:03.992Z,7.17
2022-11-05T16:40:33.958Z,10.47
2022-11-05T16:43:16.651Z,10.53
2022-11-05T16:45:45.571Z,9.30
2022-11-05T16:48:15.481Z,7.90
2022-11-05T16:50:44.468Z,7.13
2022-11-05T16:53:13.234Z,7.73
2022-11-05T16:55:45.038Z,6.57
2022-11-05T16:58:20.903Z,6.10
2022-11-05T17:00:51.337Z,5.73
2022-11-05T17:03:20.091Z,6.20
2022-11-05T17:05:48.873Z,5.53
2022-11-05T17:08:17.692Z,6.00
2022-11-05T17:10:47.833Z,6.57
2022-11-05T17:13:18.016Z,8.30
2022-11-05T17:15:48.770Z,8.30
2022-11-05T17:18:19.137Z,10.10
2022-11-05T17:20:50.250Z,13.17
2022-11-05T17:23:21.015Z,19.70
2022-11-05T17:25:54.604Z,23.80
2022-11-05T17:28:23.869Z,21.80
2022-11-05T17:30:53.391Z,17.83
2022-11-05T17:33:23.686Z,15.53
2022-11-05T17:35:53.635Z,15.67
2022-11-05T17:38:23.650Z,17.83
2022-11-05T17:40:54.233Z,23.43
2022-11-05T17:43:23.064Z,22.80
2022-11-05T17:45:53.357Z,33.93
2022-11-05T17:48:22.582Z,40.07
2022-11-05T17:50:52.270Z,38.77
2022-11-05T17:53:21.492Z,25.43
2022-11-05T17:55:50.780Z,20.17
2022-11-05T17:58:21.471Z,19.43
2022-11-05T18:00:50.399Z,29.10
2022-11-05T18:03:19.144Z,36.37
2022-11-05T18:05:47.783Z,28.77
2022-11-05T18:08:16.460Z,23.70
2022-11-05T18:10:45.475Z,26.07
2022-11-05T18:13:14.530Z,19.30
2022-11-05T18:15:44.939Z,32.53
2022-11-05T18:18:13.851Z,33.87
2022-11-05T18:20:43.740Z,33.37
2022-11-05T18:23:13.659Z,31.80
2022-11-05T18:25:43.144Z,20.50
2022-11-05T18:28:12.176Z,15.93
2022-11-05T18:30:41.439Z,15.00
2022-11-05T18:33:12.047Z,16.90
2022-11-05T18:35:44.551Z,16.87
2022-11-05T18:38:13.487Z,18.07
2022-11-05T18:40:42.084Z,17.07
2022-11-05T18:43:11.184Z,16.83
2022-11-05T18:45:40.342Z,18.57
2022-11-05T18:48:09.148Z,20.87
2022-11-05T18:50:40.848Z,17.87
2022-11-05T18:53:09.962Z,18.80
2022-11-05T18:55:40.220Z,19.53
2022-11-05T18:58:09.267Z,18.50
2022-11-05T19:00:40.348Z,20.67
2022-11-05T19:03:09.665Z,18.10
2022-11-05T19:05:39.838Z,21.30
2022-11-05T19:08:08.545Z,17.40
2022-11-05T19:10:40.210Z,16.00
2022-11-05T19:13:08.861Z,18.77
2022-11-05T19:15:37.863Z,17.00
2022-11-05T19:18:07.148Z,17.60
2022-11-05T19:20:37.930Z,18.83
2022-11-05T19:23:08.872Z,19.30
2022-11-05T19:25:38.809Z,18.40
2022-11-05T19:28:07.700Z,18.37
2022-11-05T19:30:38.761Z,18.73
2022-11-05T19:33:08.161Z,20.33
2022-11-05T19:35:41.537Z,19.53
2022-11-05T19:38:12.559Z,20.40
2022-11-05T19:40:41.625Z,19.27
2022-11-05T19:43:10.423Z,26.30
2022-11-05T19:45:44.915Z,36.80
2022-11-05T19:48:19.064Z,36.70
2022-11-05T19:50:49.007Z,36.20
2022-11-05T19:53:19.780Z,28.67
2022-11-05T19:55:48.936Z,28.27
2022-11-05T19:58:18.406Z,45.70
2022-11-05T20:00:47.796Z,49.13
2022-11-05T20:03:17.079Z,33.77
2022-11-05T20:05:46.855Z,26.30
2022-11-05T20:08:16.918Z,19.40
2022-11-05T20:10:48.734Z,18.53
2022-11-05T20:13:20.063Z,20.20
2022-11-05T20:15:50.089Z,20.53
2022-11-05T20:18:19.851Z,20.03
2022-11-05T20:20:49.670Z,19.97
2022-11-05T20:23:19.701Z,20.60
2022-11-05T20:25:50.957Z,24.60
2022-11-05T20:28:20.448Z,22.77
2022-11-05T20:30:49.935Z,21.40
2022-11-05T20:33:19.382Z,28.73
2022-11-05T20:35:48.890Z,29.80
2022-11-05T20:38:18.628Z,32.57
2022-11-05T20:40:51.600Z,24.33
2022-11-05T20:43:24.754Z,20.77
2022-11-05T20:45:59.090Z,22.60
2022-11-05T20:48:31.365Z,27.97
2022-11-05T20:51:01.321Z,25.63
2022-11-05T20:53:30.447Z,24.53
2022-11-05T20:56:06.547Z,26.50
2022-11-05T20:58:37.536Z,28.20
2022-11-05T21:01:08.404Z,27.33
2022-11-05T21:03:37.645Z,29.37
2022-11-05T21:06:07.708Z,30.23
2022-11-05T21:08:37.435Z,28.67
2022-11-05T21:11:08.346Z,26.30
2022-11-05T21:13:37.739Z,27.67
2022-11-05T21:16:10.942Z,28.17
2022-11-05T21:18:43.130Z,27.87
2022-11-05T21:21:14.711Z,26.67
2022-11-05T21:23:43.705Z,31.43
2022-11-05T21:26:16.881Z,28.57
2022-11-05T21:28:46.018Z,25.10
2022-11-05T21:31:15.001Z,23.37
2022-11-05T21:33:44.289Z,22.63
2022-11-05T21:36:14.848Z,23.03
2022-11-05T21:38:44.036Z,24.17
2022-11-05T21:41:15.172Z,25.87
2022-11-05T21:43:44.106Z,24.53
2022-11-05T21:46:14.537Z,21.43
2022-11-05T21:48:43.712Z,21.40
2022-11-05T21:51:30.587Z,20.70
2022-11-05T21:54:17.281Z,20.73
2022-11-05T21:57:09.786Z,20.50
2022-11-05T21:59:57.616Z,21.03
2022-11-05T22:02:28.539Z,20.23
2022-11-05T22:05:00.032Z,22.77
2022-11-05T22:07:31.770Z,22.53
2022-11-05T22:10:01.264Z,23.23
2022-11-05T22:12:32.789Z,22.83
2022-11-05T22:15:01.594Z,22.67
2022-11-05T22:17:30.618Z,21.63
2022-11-05T22:19:59.319Z,20.27
2022-11-05T22:22:28.114Z,19.33
2022-11-05T22:24:56.921Z,20.23
2022-11-05T22:27:25.593Z,21.33
2022-11-05T22:29:55.858Z,21.13
2022-11-05T22:32:24.720Z,22.50
2022-11-05T22:34:53.393Z,22.87
2022-11-05T22:37:22.807Z,27.23
2022-11-05T22:39:51.865Z,25.17
2022-11-05T22:42:20.493Z,24.20
2022-11-05T22:44:49.160Z,25.13
2022-11-05T22:47:19.405Z,23.67
2022-11-05T22:49:50.437Z,22.87
2022-11-05T22:52:19.061Z,22.57
2022-11-05T22:54:49.988Z,23.13
2022-11-05T22:57:18.642Z,24.53
2022-11-05T22:59:47.383Z,22.93
2022-11-05T23:02:16.147Z,24.77
2022-11-05T23:04:46.166Z,22.87
2022-11-05T23:07:32.505Z,24.63
2022-11-05T23:10:18.495Z,24.03
2022-11-05T23:12:47.111Z,26.03
2022-11-05T23:15:29.658Z,28.50
2022-11-05T23:18:15.752Z,29.03
2022-11-05T23:21:03.329Z,25.27
2022-11-05T23:23:49.296Z,24.00
2022-11-05T23:26:34.981Z,25.27
2022-11-05T23:29:04.366Z,24.83
2022-11-05T23:31:50.658Z,23.27
2022-11-05T23:34:19.487Z,20.33
2022-11-05T23:37:07.021Z,20.93
2022-11-05T23:39:41.254Z,20.43
2022-11-05T23:42:28.874Z,22.03
2022-11-05T23:45:15.125Z,19.73
2022-11-05T23:47:57.927Z,24.07
2022-11-05T23:50:27.376Z,23.50
2022-11-05T23:52:57.498Z,24.87
2022-11-05T23:55:26.565Z,22.57
2022-11-05T23:57:55.327Z,24.33
